sensor_id;sensor_type;location;lat;lon;timestamp;pressure;altitude;pressure_sealevel;temperature;humidity
52291;BME280;39663;45.432;28.050;2023-07-22T00:02:50;101001.77;;;24.98;44.77
52291;BME280;39663;45.432;28.050;2023-07-22T00:03:22;101003.27;;;25.09;44.83
52291;BME280;39663;45.432;28.050;2023-07-22T00:03:54;101006.53;;;25.11;44.90
52291;BME280;39663;45.432;28.050;2023-07-22T00:04:26;101003.96;;;25.17;44.88
52291;BME280;39663;45.432;28.050;2023-07-22T00:04:58;101003.90;;;25.38;44.84
52291;BME280;39663;45.432;28.050;2023-07-22T00:05:29;101003.15;;;25.60;44.73
52291;BME280;39663;45.432;28.050;2023-07-22T00:06:05;101002.59;;;25.30;44.72
52291;BME280;39663;45.432;28.050;2023-07-22T00:06:36;101002.41;;;25.27;44.59
52291;BME280;39663;45.432;28.050;2023-07-22T00:07:08;101002.93;;;25.32;44.63
52291;BME280;39663;45.432;28.050;2023-07-22T00:07:39;100999.56;;;25.54;44.68
52291;BME280;39663;45.432;28.050;2023-07-22T00:08:11;101000.25;;;25.53;44.69
52291;BME280;39663;45.432;28.050;2023-07-22T00:08:43;101000.03;;;25.59;44.76
52291;BME280;39663;45.432;28.050;2023-07-22T00:09:14;100999.36;;;25.30;44.53
52291;BME280;39663;45.432;28.050;2023-07-22T00:09:45;100998.81;;;25.31;44.58
52291;BME280;39663;45.432;28.050;2023-07-22T00:10:17;100999.17;;;25.70;44.55
52291;BME280;39663;45.432;28.050;2023-07-22T00:10:50;100998.21;;;25.31;44.59
52291;BME280;39663;45.432;28.050;2023-07-22T00:11:21;100997.19;;;25.47;44.70
52291;BME280;39663;45.432;28.050;2023-07-22T00:11:53;100996.64;;;25.27;44.56
52291;BME280;39663;45.432;28.050;2023-07-22T00:12:24;100996.87;;;25.33;44.65
52291;BME280;39663;45.432;28.050;2023-07-22T00:12:56;100994.63;;;25.58;44.72
52291;BME280;39663;45.432;28.050;2023-07-22T00:13:28;100994.45;;;25.68;44.71
52291;BME280;39663;45.432;28.050;2023-07-22T00:14:00;100996.14;;;25.43;44.70
52291;BME280;39663;45.432;28.050;2023-07-22T00:14:31;100996.64;;;25.64;44.64
52291;BME280;39663;45.432;28.050;2023-07-22T00:15:03;100997.70;;;25.47;44.73
52291;BME280;39663;45.432;28.050;2023-07-22T00:15:35;100998.46;;;25.55;44.71
52291;BME280;39663;45.432;28.050;2023-07-22T00:16:06;100998.50;;;25.40;44.74
52291;BME280;39663;45.432;28.050;2023-07-22T00:16:38;100999.91;;;25.23;44.92
52291;BME280;39663;45.432;28.050;2023-07-22T00:17:10;100998.93;;;25.21;45.01
52291;BME280;39663;45.432;28.050;2023-07-22T00:17:42;100999.69;;;25.42;45.13
52291;BME280;39663;45.432;28.050;2023-07-22T00:18:13;101000.59;;;25.26;45.05
52291;BME280;39663;45.432;28.050;2023-07-22T00:18:45;101000.11;;;25.30;45.17
52291;BME280;39663;45.432;28.050;2023-07-22T00:19:16;101000.70;;;25.24;45.20
52291;BME280;39663;45.432;28.050;2023-07-22T00:19:48;101001.65;;;25.45;45.09
52291;BME280;39663;45.432;28.050;2023-07-22T00:20:20;101001.53;;;25.16;45.10
52291;BME280;39663;45.432;28.050;2023-07-22T00:20:51;100999.83;;;25.46;45.12
52291;BME280;39663;45.432;28.050;2023-07-22T00:21:23;100998.88;;;25.43;45.10
52291;BME280;39663;45.432;28.050;2023-07-22T00:21:54;100998.38;;;25.28;45.10
52291;BME280;39663;45.432;28.050;2023-07-22T00:22:26;101000.90;;;24.94;45.23
52291;BME280;39663;45.432;28.050;2023-07-22T00:22:58;101000.26;;;24.83;45.38
52291;BME280;39663;45.432;28.050;2023-07-22T00:23:29;100998.11;;;25.24;45.42
52291;BME280;39663;45.432;28.050;2023-07-22T00:24:01;101000.36;;;25.33;45.35
52291;BME280;39663;45.432;28.050;2023-07-22T00:24:32;101000.42;;;25.34;45.39
52291;BME280;39663;45.432;28.050;2023-07-22T00:25:05;101001.54;;;25.24;45.45
52291;BME280;39663;45.432;28.050;2023-07-22T00:25:36;101001.71;;;25.23;45.49
52291;BME280;39663;45.432;28.050;2023-07-22T00:26:08;101002.14;;;25.16;45.58
52291;BME280;39663;45.432;28.050;2023-07-22T00:26:39;101002.19;;;25.06;45.59
52291;BME280;39663;45.432;28.050;2023-07-22T00:27:11;101001.14;;;25.27;45.49
52291;BME280;39663;45.432;28.050;2023-07-22T00:27:43;101002.98;;;25.17;45.54
52291;BME280;39663;45.432;28.050;2023-07-22T00:28:15;101003.42;;;25.17;45.57
52291;BME280;39663;45.432;28.050;2023-07-22T00:28:46;101005.14;;;24.83;45.68
52291;BME280;39663;45.432;28.050;2023-07-22T00:29:18;101004.40;;;25.16;45.74
52291;BME280;39663;45.432;28.050;2023-07-22T00:29:49;101002.50;;;25.11;45.73
52291;BME280;39663;45.432;28.050;2023-07-22T00:30:21;101004.29;;;25.16;45.80
52291;BME280;39663;45.432;28.050;2023-07-22T00:30:52;101002.75;;;25.10;45.77
52291;BME280;39663;45.432;28.050;2023-07-22T00:31:24;101000.51;;;25.08;45.76
52291;BME280;39663;45.432;28.050;2023-07-22T00:31:55;101000.54;;;24.94;45.77
52291;BME280;39663;45.432;28.050;2023-07-22T00:32:27;100999.16;;;25.18;45.79
52291;BME280;39663;45.432;28.050;2023-07-22T00:32:58;100997.52;;;25.20;45.72
52291;BME280;39663;45.432;28.050;2023-07-22T00:33:30;100995.62;;;25.19;45.70
52291;BME280;39663;45.432;28.050;2023-07-22T00:34:02;100994.50;;;25.08;45.90
52291;BME280;39663;45.432;28.050;2023-07-22T00:34:33;100992.50;;;25.10;45.91
52291;BME280;39663;45.432;28.050;2023-07-22T00:35:06;100990.91;;;25.14;45.89
52291;BME280;39663;45.432;28.050;2023-07-22T00:35:38;100989.04;;;25.09;45.74
52291;BME280;39663;45.432;28.050;2023-07-22T00:36:09;100987.97;;;24.98;45.66
52291;BME280;39663;45.432;28.050;2023-07-22T00:36:41;100986.42;;;25.21;45.55
52291;BME280;39663;45.432;28.050;2023-07-22T00:37:13;100984.80;;;24.82;45.64
52291;BME280;39663;45.432;28.050;2023-07-22T00:37:44;100984.43;;;25.12;45.68
52291;BME280;39663;45.432;28.050;2023-07-22T00:38:16;100984.45;;;25.01;45.86
52291;BME280;39663;45.432;28.050;2023-07-22T00:38:47;100983.20;;;25.12;45.92
52291;BME280;39663;45.432;28.050;2023-07-22T00:39:19;100980.86;;;25.15;45.78
52291;BME280;39663;45.432;28.050;2023-07-22T00:39:51;100979.32;;;25.05;45.73
52291;BME280;39663;45.432;28.050;2023-07-22T00:40:23;100976.61;;;25.14;45.74
52291;BME280;39663;45.432;28.050;2023-07-22T00:40:54;100977.74;;;24.95;45.79
52291;BME280;39663;45.432;28.050;2023-07-22T00:41:25;100975.56;;;25.05;45.94
52291;BME280;39663;45.432;28.050;2023-07-22T00:41:57;100974.40;;;25.10;45.87
52291;BME280;39663;45.432;28.050;2023-07-22T00:42:28;100971.36;;;24.89;45.78
52291;BME280;39663;45.432;28.050;2023-07-22T00:43:00;100972.43;;;25.20;45.67
52291;BME280;39663;45.432;28.050;2023-07-22T00:43:31;100969.44;;;25.19;45.74
52291;BME280;39663;45.432;28.050;2023-07-22T00:44:03;100971.69;;;25.18;45.79
52291;BME280;39663;45.432;28.050;2023-07-22T00:44:36;100968.72;;;25.22;45.78
52291;BME280;39663;45.432;28.050;2023-07-22T00:45:08;100968.41;;;25.38;45.92
52291;BME280;39663;45.432;28.050;2023-07-22T00:45:40;100970.10;;;25.15;45.96
52291;BME280;39663;45.432;28.050;2023-07-22T00:46:11;100968.94;;;24.93;46.02
52291;BME280;39663;45.432;28.050;2023-07-22T00:46:43;100967.89;;;25.13;45.83
52291;BME280;39663;45.432;28.050;2023-07-22T00:47:16;100968.39;;;24.92;45.86
52291;BME280;39663;45.432;28.050;2023-07-22T00:47:48;100966.58;;;24.98;45.95
52291;BME280;39663;45.432;28.050;2023-07-22T00:48:21;100964.33;;;25.03;45.90
52291;BME280;39663;45.432;28.050;2023-07-22T00:48:53;100961.62;;;25.02;45.75
52291;BME280;39663;45.432;28.050;2023-07-22T00:49:26;100958.40;;;25.06;45.73
52291;BME280;39663;45.432;28.050;2023-07-22T00:50:00;100957.34;;;25.04;45.89
52291;BME280;39663;45.432;28.050;2023-07-22T00:50:33;100952.62;;;25.06;45.86
52291;BME280;39663;45.432;28.050;2023-07-22T00:51:04;100951.37;;;25.26;45.77
52291;BME280;39663;45.432;28.050;2023-07-22T00:51:36;100952.10;;;24.95;45.96
52291;BME280;39663;45.432;28.050;2023-07-22T00:52:08;100952.93;;;24.94;46.02
52291;BME280;39663;45.432;28.050;2023-07-22T00:52:39;100952.55;;;24.99;46.02
52291;BME280;39663;45.432;28.050;2023-07-22T00:53:11;100954.39;;;25.01;45.97
52291;BME280;39663;45.432;28.050;2023-07-22T00:53:43;100954.10;;;25.07;45.84
52291;BME280;39663;45.432;28.050;2023-07-22T00:54:15;100953.89;;;25.08;45.84
52291;BME280;39663;45.432;28.050;2023-07-22T00:54:47;100956.66;;;25.03;45.98
52291;BME280;39663;45.432;28.050;2023-07-22T00:55:18;100953.21;;;25.01;45.94
52291;BME280;39663;45.432;28.050;2023-07-22T00:55:50;100953.41;;;25.05;45.90
52291;BME280;39663;45.432;28.050;2023-07-22T00:56:22;100950.70;;;25.08;46.03
52291;BME280;39663;45.432;28.050;2023-07-22T00:56:54;100951.38;;;25.24;46.04
52291;BME280;39663;45.432;28.050;2023-07-22T00:57:27;100950.60;;;24.80;46.15
52291;BME280;39663;45.432;28.050;2023-07-22T00:57:59;100950.38;;;24.85;46.16
52291;BME280;39663;45.432;28.050;2023-07-22T00:58:30;100949.37;;;25.04;45.98
52291;BME280;39663;45.432;28.050;2023-07-22T00:59:02;100950.17;;;24.97;46.11
52291;BME280;39663;45.432;28.050;2023-07-22T00:59:33;100949.87;;;25.05;46.10
52291;BME280;39663;45.432;28.050;2023-07-22T01:00:06;100949.24;;;24.99;46.05
52291;BME280;39663;45.432;28.050;2023-07-22T01:00:38;100950.58;;;25.08;45.98
52291;BME280;39663;45.432;28.050;2023-07-22T01:01:09;100948.55;;;25.05;45.92
52291;BME280;39663;45.432;28.050;2023-07-22T01:01:55;100948.24;;;25.02;46.01
52291;BME280;39663;45.432;28.050;2023-07-22T01:02:26;100947.10;;;25.18;45.99
52291;BME280;39663;45.432;28.050;2023-07-22T01:02:58;100945.46;;;25.05;45.93
52291;BME280;39663;45.432;28.050;2023-07-22T01:03:30;100944.33;;;25.01;45.91
52291;BME280;39663;45.432;28.050;2023-07-22T01:04:01;100943.23;;;24.90;45.98
52291;BME280;39663;45.432;28.050;2023-07-22T01:04:34;100944.50;;;25.10;45.95
52291;BME280;39663;45.432;28.050;2023-07-22T01:05:06;100943.46;;;25.10;45.92
52291;BME280;39663;45.432;28.050;2023-07-22T01:05:38;100944.02;;;25.31;45.96
52291;BME280;39663;45.432;28.050;2023-07-22T01:06:10;100943.28;;;25.06;45.96
52291;BME280;39663;45.432;28.050;2023-07-22T01:06:43;100942.07;;;25.11;45.92
52291;BME280;39663;45.432;28.050;2023-07-22T01:07:15;100941.58;;;24.84;45.86
52291;BME280;39663;45.432;28.050;2023-07-22T01:07:47;100942.02;;;24.94;45.79
52291;BME280;39663;45.432;28.050;2023-07-22T01:08:18;100939.79;;;24.94;45.78
52291;BME280;39663;45.432;28.050;2023-07-22T01:08:50;100941.35;;;25.17;45.67
52291;BME280;39663;45.432;28.050;2023-07-22T01:09:22;100940.29;;;25.15;45.66
52291;BME280;39663;45.432;28.050;2023-07-22T01:09:56;100941.05;;;24.90;45.60
52291;BME280;39663;45.432;28.050;2023-07-22T01:10:28;100939.55;;;25.11;45.66
52291;BME280;39663;45.432;28.050;2023-07-22T01:10:59;100938.61;;;25.06;45.78
52291;BME280;39663;45.432;28.050;2023-07-22T01:11:31;100937.00;;;25.26;45.78
52291;BME280;39663;45.432;28.050;2023-07-22T01:12:03;100938.92;;;25.18;45.86
52291;BME280;39663;45.432;28.050;2023-07-22T01:12:34;100936.53;;;24.75;45.97
52291;BME280;39663;45.432;28.050;2023-07-22T01:13:06;100939.45;;;25.03;45.97
52291;BME280;39663;45.432;28.050;2023-07-22T01:13:37;100938.84;;;24.80;46.28
52291;BME280;39663;45.432;28.050;2023-07-22T01:14:09;100940.38;;;25.05;46.22
52291;BME280;39663;45.432;28.050;2023-07-22T01:14:42;100940.62;;;24.62;46.21
52291;BME280;39663;45.432;28.050;2023-07-22T01:15:13;100939.96;;;24.88;46.23
52291;BME280;39663;45.432;28.050;2023-07-22T01:15:46;100940.29;;;24.83;46.22
52291;BME280;39663;45.432;28.050;2023-07-22T01:16:17;100939.05;;;24.80;46.33
52291;BME280;39663;45.432;28.050;2023-07-22T01:16:49;100938.11;;;24.70;46.21
52291;BME280;39663;45.432;28.050;2023-07-22T01:17:20;100936.54;;;24.91;46.12
52291;BME280;39663;45.432;28.050;2023-07-22T01:17:52;100936.05;;;24.92;46.03
52291;BME280;39663;45.432;28.050;2023-07-22T01:18:24;100935.73;;;24.74;45.93
52291;BME280;39663;45.432;28.050;2023-07-22T01:18:55;100936.30;;;25.03;46.00
52291;BME280;39663;45.432;28.050;2023-07-22T01:19:28;100938.90;;;24.89;45.84
52291;BME280;39663;45.432;28.050;2023-07-22T01:19:59;100938.43;;;25.11;45.76
52291;BME280;39663;45.432;28.050;2023-07-22T01:20:31;100938.95;;;24.66;45.62
52291;BME280;39663;45.432;28.050;2023-07-22T01:21:03;100938.19;;;25.08;45.60
52291;BME280;39663;45.432;28.050;2023-07-22T01:21:38;100939.21;;;24.84;45.63
52291;BME280;39663;45.432;28.050;2023-07-22T01:22:11;100939.32;;;24.87;45.50
52291;BME280;39663;45.432;28.050;2023-07-22T01:22:50;100939.95;;;25.17;45.35
52291;BME280;39663;45.432;28.050;2023-07-22T01:23:22;100939.08;;;25.12;45.33
52291;BME280;39663;45.432;28.050;2023-07-22T01:23:54;100939.06;;;24.74;45.15
52291;BME280;39663;45.432;28.050;2023-07-22T01:24:25;100939.49;;;24.74;45.15
52291;BME280;39663;45.432;28.050;2023-07-22T01:24:57;100941.08;;;25.13;44.92
52291;BME280;39663;45.432;28.050;2023-07-22T01:25:29;100942.43;;;25.06;44.90
52291;BME280;39663;45.432;28.050;2023-07-22T01:26:02;100943.72;;;24.69;44.73
52291;BME280;39663;45.432;28.050;2023-07-22T01:26:34;100943.94;;;24.95;44.56
52291;BME280;39663;45.432;28.050;2023-07-22T01:27:08;100945.14;;;24.71;44.59
52291;BME280;39663;45.432;28.050;2023-07-22T01:27:41;100944.92;;;24.88;44.79
52291;BME280;39663;45.432;28.050;2023-07-22T01:28:12;100945.19;;;25.02;44.83
52291;BME280;39663;45.432;28.050;2023-07-22T01:28:44;100945.13;;;24.89;44.65
52291;BME280;39663;45.432;28.050;2023-07-22T01:29:15;100945.37;;;24.92;44.55
52291;BME280;39663;45.432;28.050;2023-07-22T01:29:50;100947.92;;;24.66;44.52
52291;BME280;39663;45.432;28.050;2023-07-22T01:30:21;100946.95;;;25.11;44.47
52291;BME280;39663;45.432;28.050;2023-07-22T01:30:53;100945.43;;;24.73;44.02
52291;BME280;39663;45.432;28.050;2023-07-22T01:31:24;100946.33;;;24.75;43.98
52291;BME280;39663;45.432;28.050;2023-07-22T01:31:56;100944.71;;;25.10;44.19
52291;BME280;39663;45.432;28.050;2023-07-22T01:32:27;100946.87;;;24.73;44.04
52291;BME280;39663;45.432;28.050;2023-07-22T01:32:59;100943.54;;;24.83;44.03
52291;BME280;39663;45.432;28.050;2023-07-22T01:33:31;100942.89;;;24.95;43.72
52291;BME280;39663;45.432;28.050;2023-07-22T01:34:02;100942.40;;;24.81;43.79
52291;BME280;39663;45.432;28.050;2023-07-22T01:34:34;100942.18;;;25.08;43.80
52291;BME280;39663;45.432;28.050;2023-07-22T01:35:06;100941.56;;;24.91;43.64
52291;BME280;39663;45.432;28.050;2023-07-22T01:35:38;100941.72;;;25.16;43.67
52291;BME280;39663;45.432;28.050;2023-07-22T01:36:09;100941.37;;;24.93;43.63
52291;BME280;39663;45.432;28.050;2023-07-22T01:36:41;100940.75;;;24.71;43.59
52291;BME280;39663;45.432;28.050;2023-07-22T01:37:12;100941.28;;;24.55;43.52
52291;BME280;39663;45.432;28.050;2023-07-22T01:37:44;100939.72;;;25.03;43.40
52291;BME280;39663;45.432;28.050;2023-07-22T01:38:15;100940.68;;;25.19;43.36
52291;BME280;39663;45.432;28.050;2023-07-22T01:38:47;100939.48;;;24.85;43.32
52291;BME280;39663;45.432;28.050;2023-07-22T01:39:18;100939.89;;;24.95;43.22
52291;BME280;39663;45.432;28.050;2023-07-22T01:39:50;100938.18;;;25.00;43.33
52291;BME280;39663;45.432;28.050;2023-07-22T01:40:21;100941.00;;;25.19;43.29
52291;BME280;39663;45.432;28.050;2023-07-22T01:40:52;100938.83;;;24.81;43.30
52291;BME280;39663;45.432;28.050;2023-07-22T01:41:24;100940.09;;;25.19;43.34
52291;BME280;39663;45.432;28.050;2023-07-22T01:41:55;100938.05;;;25.16;43.33
52291;BME280;39663;45.432;28.050;2023-07-22T01:42:27;100937.21;;;24.99;43.42
52291;BME280;39663;45.432;28.050;2023-07-22T01:42:58;100935.35;;;25.20;43.23
52291;BME280;39663;45.432;28.050;2023-07-22T01:43:30;100937.07;;;24.96;43.39
52291;BME280;39663;45.432;28.050;2023-07-22T01:44:01;100934.97;;;24.73;43.39
52291;BME280;39663;45.432;28.050;2023-07-22T01:44:33;100934.36;;;25.13;43.28
52291;BME280;39663;45.432;28.050;2023-07-22T01:45:05;100934.37;;;25.16;43.27
52291;BME280;39663;45.432;28.050;2023-07-22T01:45:37;100932.58;;;24.94;43.15
52291;BME280;39663;45.432;28.050;2023-07-22T01:46:13;100931.85;;;25.23;43.13
52291;BME280;39663;45.432;28.050;2023-07-22T01:46:45;100932.09;;;25.07;43.02
52291;BME280;39663;45.432;28.050;2023-07-22T01:47:16;100932.24;;;24.87;43.10
52291;BME280;39663;45.432;28.050;2023-07-22T01:47:47;100931.27;;;25.26;43.08
52291;BME280;39663;45.432;28.050;2023-07-22T01:48:19;100927.94;;;24.96;43.14
52291;BME280;39663;45.432;28.050;2023-07-22T01:48:50;100927.19;;;24.98;43.43
52291;BME280;39663;45.432;28.050;2023-07-22T01:49:22;100924.10;;;24.99;43.44
52291;BME280;39663;45.432;28.050;2023-07-22T01:49:53;100922.94;;;24.80;43.28
52291;BME280;39663;45.432;28.050;2023-07-22T01:50:25;100921.21;;;25.04;43.30
52291;BME280;39663;45.432;28.050;2023-07-22T01:50:56;100919.86;;;25.02;43.27
52291;BME280;39663;45.432;28.050;2023-07-22T01:51:28;100920.35;;;25.02;43.42
52291;BME280;39663;45.432;28.050;2023-07-22T01:51:59;100922.09;;;25.25;43.13
52291;BME280;39663;45.432;28.050;2023-07-22T01:52:31;100921.94;;;25.13;43.04
52291;BME280;39663;45.432;28.050;2023-07-22T01:53:03;100923.59;;;25.03;43.08
52291;BME280;39663;45.432;28.050;2023-07-22T01:53:34;100927.75;;;24.97;43.02
52291;BME280;39663;45.432;28.050;2023-07-22T01:54:06;100929.98;;;25.08;43.09
52291;BME280;39663;45.432;28.050;2023-07-22T01:54:38;100930.40;;;25.13;42.99
52291;BME280;39663;45.432;28.050;2023-07-22T01:55:09;100934.13;;;25.11;43.05
52291;BME280;39663;45.432;28.050;2023-07-22T01:55:41;100937.75;;;24.88;43.01
52291;BME280;39663;45.432;28.050;2023-07-22T01:56:12;100938.37;;;24.90;43.07
52291;BME280;39663;45.432;28.050;2023-07-22T01:56:44;100940.11;;;25.01;43.19
52291;BME280;39663;45.432;28.050;2023-07-22T01:57:15;100940.54;;;25.23;43.15
52291;BME280;39663;45.432;28.050;2023-07-22T01:57:47;100941.93;;;24.90;43.43
52291;BME280;39663;45.432;28.050;2023-07-22T01:58:18;100942.49;;;24.69;43.65
52291;BME280;39663;45.432;28.050;2023-07-22T01:58:50;100943.54;;;24.78;43.78
52291;BME280;39663;45.432;28.050;2023-07-22T01:59:21;100945.86;;;25.07;43.66
52291;BME280;39663;45.432;28.050;2023-07-22T01:59:53;100947.46;;;24.92;43.56
52291;BME280;39663;45.432;28.050;2023-07-22T02:00:24;100948.89;;;24.96;43.42
52291;BME280;39663;45.432;28.050;2023-07-22T02:00:56;100951.41;;;25.29;43.29
52291;BME280;39663;45.432;28.050;2023-07-22T02:01:27;100954.45;;;25.26;43.36
52291;BME280;39663;45.432;28.050;2023-07-22T02:01:59;100955.72;;;25.09;43.30
52291;BME280;39663;45.432;28.050;2023-07-22T02:02:30;100958.12;;;25.32;43.27
52291;BME280;39663;45.432;28.050;2023-07-22T02:03:02;100956.65;;;25.11;43.20
52291;BME280;39663;45.432;28.050;2023-07-22T02:03:33;100957.33;;;25.16;43.19
52291;BME280;39663;45.432;28.050;2023-07-22T02:04:05;100958.61;;;25.09;43.24
52291;BME280;39663;45.432;28.050;2023-07-22T02:04:36;100961.26;;;25.12;43.25
52291;BME280;39663;45.432;28.050;2023-07-22T02:05:08;100963.49;;;25.13;43.24
52291;BME280;39663;45.432;28.050;2023-07-22T02:05:40;100965.17;;;24.95;43.27
52291;BME280;39663;45.432;28.050;2023-07-22T02:06:11;100970.34;;;25.11;43.31
52291;BME280;39663;45.432;28.050;2023-07-22T02:06:43;100970.22;;;24.88;43.31
52291;BME280;39663;45.432;28.050;2023-07-22T02:07:14;100972.62;;;25.11;43.41
52291;BME280;39663;45.432;28.050;2023-07-22T02:07:51;100976.81;;;25.09;43.45
52291;BME280;39663;45.432;28.050;2023-07-22T02:08:23;100979.06;;;25.23;43.46
52291;BME280;39663;45.432;28.050;2023-07-22T02:08:54;100979.40;;;25.23;43.58
52291;BME280;39663;45.432;28.050;2023-07-22T02:09:26;100982.70;;;25.06;43.61
52291;BME280;39663;45.432;28.050;2023-07-22T02:09:58;100982.76;;;25.18;43.76
52291;BME280;39663;45.432;28.050;2023-07-22T02:10:29;100984.69;;;25.02;43.74
52291;BME280;39663;45.432;28.050;2023-07-22T02:11:03;100984.25;;;24.98;43.75
52291;BME280;39663;45.432;28.050;2023-07-22T02:11:35;100985.33;;;25.02;43.77
52291;BME280;39663;45.432;28.050;2023-07-22T02:12:08;100984.49;;;25.27;43.70
52291;BME280;39663;45.432;28.050;2023-07-22T02:12:39;100984.62;;;25.09;43.77
52291;BME280;39663;45.432;28.050;2023-07-22T02:13:11;100986.83;;;25.06;43.73
52291;BME280;39663;45.432;28.050;2023-07-22T02:13:42;100987.67;;;25.14;43.63
52291;BME280;39663;45.432;28.050;2023-07-22T02:14:14;100990.05;;;24.91;43.69
52291;BME280;39663;45.432;28.050;2023-07-22T02:14:45;100991.77;;;25.22;43.70
52291;BME280;39663;45.432;28.050;2023-07-22T02:15:17;100990.02;;;25.00;43.82
52291;BME280;39663;45.432;28.050;2023-07-22T02:15:48;100987.25;;;24.94;43.76
52291;BME280;39663;45.432;28.050;2023-07-22T02:16:20;100986.30;;;25.00;43.79
52291;BME280;39663;45.432;28.050;2023-07-22T02:16:51;100984.07;;;25.09;43.66
52291;BME280;39663;45.432;28.050;2023-07-22T02:17:23;100983.74;;;25.25;43.46
52291;BME280;39663;45.432;28.050;2023-07-22T02:17:54;100983.63;;;25.03;43.51
52291;BME280;39663;45.432;28.050;2023-07-22T02:18:26;100984.05;;;25.05;43.47
52291;BME280;39663;45.432;28.050;2023-07-22T02:18:58;100984.80;;;25.11;43.45
52291;BME280;39663;45.432;28.050;2023-07-22T02:19:30;100984.67;;;25.51;43.40
52291;BME280;39663;45.432;28.050;2023-07-22T02:20:01;100986.78;;;25.10;43.39
52291;BME280;39663;45.432;28.050;2023-07-22T02:20:33;100985.24;;;25.06;43.51
52291;BME280;39663;45.432;28.050;2023-07-22T02:21:04;100984.99;;;25.29;43.50
52291;BME280;39663;45.432;28.050;2023-07-22T02:21:36;100985.10;;;25.30;43.47
52291;BME280;39663;45.432;28.050;2023-07-22T02:22:08;100984.12;;;25.17;43.39
52291;BME280;39663;45.432;28.050;2023-07-22T02:22:39;100982.41;;;25.38;43.39
52291;BME280;39663;45.432;28.050;2023-07-22T02:23:11;100982.08;;;25.29;43.32
52291;BME280;39663;45.432;28.050;2023-07-22T02:23:42;100982.26;;;25.16;43.42
52291;BME280;39663;45.432;28.050;2023-07-22T02:24:15;100982.10;;;25.43;43.39
52291;BME280;39663;45.432;28.050;2023-07-22T02:24:47;100984.01;;;25.31;43.52
52291;BME280;39663;45.432;28.050;2023-07-22T02:25:19;100986.88;;;25.49;43.55
52291;BME280;39663;45.432;28.050;2023-07-22T02:25:51;100988.96;;;25.32;43.52
52291;BME280;39663;45.432;28.050;2023-07-22T02:26:22;100993.13;;;25.42;43.47
52291;BME280;39663;45.432;28.050;2023-07-22T02:26:54;100993.84;;;25.27;43.46
52291;BME280;39663;45.432;28.050;2023-07-22T02:27:25;100998.39;;;25.25;43.69
52291;BME280;39663;45.432;28.050;2023-07-22T02:27:57;101000.39;;;25.22;43.81
52291;BME280;39663;45.432;28.050;2023-07-22T02:28:28;101003.17;;;25.32;43.94
52291;BME280;39663;45.432;28.050;2023-07-22T02:29:00;101005.71;;;25.14;43.87
52291;BME280;39663;45.432;28.050;2023-07-22T02:29:32;101007.22;;;24.97;43.63
52291;BME280;39663;45.432;28.050;2023-07-22T02:30:04;101010.35;;;25.22;43.57
52291;BME280;39663;45.432;28.050;2023-07-22T02:30:36;101013.60;;;25.26;43.46
52291;BME280;39663;45.432;28.050;2023-07-22T02:31:08;101016.02;;;25.55;43.70
52291;BME280;39663;45.432;28.050;2023-07-22T02:31:39;101022.24;;;25.39;43.95
52291;BME280;39663;45.432;28.050;2023-07-22T02:32:10;101024.59;;;25.28;43.82
52291;BME280;39663;45.432;28.050;2023-07-22T02:32:42;101026.49;;;25.31;43.76
52291;BME280;39663;45.432;28.050;2023-07-22T02:33:14;101029.66;;;25.46;43.73
52291;BME280;39663;45.432;28.050;2023-07-22T02:33:46;101033.94;;;25.64;43.85
52291;BME280;39663;45.432;28.050;2023-07-22T02:34:17;101036.74;;;25.40;43.61
52291;BME280;39663;45.432;28.050;2023-07-22T02:34:49;101040.06;;;25.38;43.51
52291;BME280;39663;45.432;28.050;2023-07-22T02:35:20;101044.15;;;25.44;43.41
52291;BME280;39663;45.432;28.050;2023-07-22T02:35:52;101045.70;;;25.44;43.33
52291;BME280;39663;45.432;28.050;2023-07-22T02:36:23;101048.51;;;25.48;43.32
52291;BME280;39663;45.432;28.050;2023-07-22T02:36:55;101047.08;;;25.03;44.16
52291;BME280;39663;45.432;28.050;2023-07-22T02:37:26;101050.24;;;25.23;43.80
52291;BME280;39663;45.432;28.050;2023-07-22T02:37:58;101050.19;;;25.26;44.01
52291;BME280;39663;45.432;28.050;2023-07-22T02:38:29;101046.03;;;25.31;43.70
52291;BME280;39663;45.432;28.050;2023-07-22T02:39:01;101043.54;;;25.38;43.56
52291;BME280;39663;45.432;28.050;2023-07-22T02:39:32;101042.36;;;25.43;43.41
52291;BME280;39663;45.432;28.050;2023-07-22T02:40:05;101035.57;;;25.51;43.29
52291;BME280;39663;45.432;28.050;2023-07-22T02:40:37;101032.58;;;25.38;43.41
52291;BME280;39663;45.432;28.050;2023-07-22T02:41:09;101030.99;;;25.57;43.47
52291;BME280;39663;45.432;28.050;2023-07-22T02:41:40;101025.71;;;25.37;43.45
52291;BME280;39663;45.432;28.050;2023-07-22T02:42:12;101026.48;;;25.61;43.57
52291;BME280;39663;45.432;28.050;2023-07-22T02:42:43;101027.31;;;25.28;43.41
52291;BME280;39663;45.432;28.050;2023-07-22T02:43:15;101026.61;;;25.43;43.26
52291;BME280;39663;45.432;28.050;2023-07-22T02:43:47;101027.08;;;25.34;43.73
52291;BME280;39663;45.432;28.050;2023-07-22T02:44:18;101027.22;;;25.27;43.69
52291;BME280;39663;45.432;28.050;2023-07-22T02:44:50;101030.54;;;25.41;43.80
52291;BME280;39663;45.432;28.050;2023-07-22T02:45:21;101028.97;;;25.42;43.79
52291;BME280;39663;45.432;28.050;2023-07-22T02:45:53;101029.79;;;25.47;43.67
52291;BME280;39663;45.432;28.050;2023-07-22T02:46:25;101033.93;;;25.61;43.61
52291;BME280;39663;45.432;28.050;2023-07-22T02:46:56;101037.17;;;25.50;43.45